Time;durP1;ratioP1;P1;durP2;ratioP2;P2;SDS_P1;SDS_P2;PMS_P1;PMS_P2;Temp;Humidity;BMP_temperature;BMP_pressure;BME280_temperature;BME280_humidity;BME280_pressure;Samples;Min_cycle;Max_cycle;Signal;HPM_P1;HPM_P2
2023/09/17 00:01:49;;;;;;;3.07;2.80;;;;;;;19.25;92.73;95370.66;4348836;32;20216;-62
2023/09/17 00:04:15;;;;;;;1.80;1.77;;;;;;;19.15;93.45;95379.22;4364086;32;20233;-62
2023/09/17 00:06:43;;;;;;;2.00;1.90;;;;;;;19.37;92.90;95377.84;4372573;32;20197;-62
2023/09/17 00:09:12;;;;;;;2.03;2.03;;;;;;;19.41;92.60;95376.03;4365980;32;20210;-62
2023/09/17 00:11:45;;;;;;;1.90;1.80;;;;;;;19.46;92.14;95381.16;4344175;32;20246;-62
2023/09/17 00:14:13;;;;;;;2.47;2.37;;;;;;;19.52;92.05;95377.09;4370319;32;20196;-63
2023/09/17 00:16:48;;;;;;;3.83;2.50;;;;;;;19.37;92.16;95377.84;4366083;32;20196;-63
2023/09/17 00:19:19;;;;;;;2.17;2.07;;;;;;;19.50;92.25;95379.34;4334585;32;20196;-63
2023/09/17 00:21:52;;;;;;;2.30;2.20;;;;;;;19.41;92.06;95378.72;4359443;32;20188;-62
2023/09/17 00:24:18;;;;;;;2.33;2.17;;;;;;;19.22;92.15;95376.72;4348401;32;20197;-63
2023/09/17 00:26:44;;;;;;;6.40;2.57;;;;;;;19.36;92.41;95382.44;4366323;32;20193;-62
2023/09/17 00:29:14;;;;;;;6.70;2.57;;;;;;;19.39;92.10;95379.06;4364590;32;20246;-62
2023/09/17 00:31:43;;;;;;;1.73;1.60;;;;;;;19.37;91.99;95373.25;4359013;32;20192;-63
2023/09/17 00:34:11;;;;;;;1.93;1.90;;;;;;;19.40;91.97;95372.53;4342456;32;20176;-62
2023/09/17 00:36:37;;;;;;;2.00;1.90;;;;;;;19.39;91.84;95370.19;4331369;32;20203;-62
2023/09/17 00:39:06;;;;;;;1.93;1.83;;;;;;;19.43;91.96;95377.25;4356499;32;20189;-62
2023/09/17 00:41:33;;;;;;;8.03;2.73;;;;;;;19.26;92.14;95369.53;4377331;32;20221;-62
2023/09/17 00:44:00;;;;;;;2.80;2.60;;;;;;;19.36;91.98;95378.97;4326772;32;20248;-63
2023/09/17 00:46:26;;;;;;;1.97;1.87;;;;;;;19.31;92.13;95379.25;4349802;32;20185;-63
2023/09/17 00:48:52;;;;;;;1.67;1.57;;;;;;;19.30;92.03;95375.00;4353820;32;20197;-63
2023/09/17 00:51:20;;;;;;;2.80;2.63;;;;;;;19.29;92.00;95376.13;4360244;32;20193;-63
2023/09/17 00:53:46;;;;;;;2.37;2.17;;;;;;;19.29;91.86;95370.75;4361067;32;20193;-63
2023/09/17 00:56:11;;;;;;;2.80;2.60;;;;;;;19.30;92.32;95375.00;4361216;32;20199;-62
2023/09/17 00:58:37;;;;;;;2.33;2.13;;;;;;;19.34;92.03;95375.84;4355971;32;20213;-62
2023/09/17 01:01:04;;;;;;;2.70;2.50;;;;;;;19.30;91.50;95372.31;4369588;32;20233;-62
2023/09/17 01:03:51;;;;;;;2.60;2.50;;;;;;;19.21;92.55;95380.53;4337745;32;20204;-62
2023/09/17 01:06:28;;;;;;;1.87;1.77;;;;;;;19.10;92.33;95380.28;4361991;32;20211;-63
2023/09/17 01:08:57;;;;;;;2.07;1.97;;;;;;;19.19;92.11;95378.19;4355501;32;20207;-63
2023/09/17 01:11:25;;;;;;;1.90;1.80;;;;;;;19.23;92.52;95378.28;4320078;32;20229;-63
2023/09/17 01:13:58;;;;;;;2.00;1.93;;;;;;;19.22;92.74;95376.72;4324280;32;20226;-62
2023/09/17 01:16:28;;;;;;;1.50;1.50;;;;;;;19.28;92.41;95374.56;4358185;32;20264;-62
2023/09/17 01:18:54;;;;;;;2.20;2.10;;;;;;;19.22;92.35;95368.66;4340549;32;20194;-63
2023/09/17 01:21:48;;;;;;;1.80;1.70;;;;;;;19.18;92.82;95368.56;4362404;32;20288;-62
2023/09/17 01:24:28;;;;;;;1.77;1.67;;;;;;;19.15;93.10;95377.31;4359092;32;20184;-62
2023/09/17 01:27:05;;;;;;;2.90;2.70;;;;;;;19.22;92.38;95382.87;4308674;32;20205;-63
2023/09/17 01:29:38;;;;;;;1.87;1.77;;;;;;;19.20;92.50;95382.44;4330867;32;20219;-63
2023/09/17 01:32:11;;;;;;;1.50;1.50;;;;;;;19.22;92.43;95374.81;4339379;32;20275;-63
2023/09/17 01:34:41;;;;;;;7.10;1.93;;;;;;;19.22;92.05;95365.97;4341681;32;20193;-63
2023/09/17 01:37:31;;;;;;;2.00;1.90;;;;;;;19.16;92.11;95370.81;4329702;32;20189;-62
2023/09/17 01:40:03;;;;;;;2.03;1.30;;;;;;;18.93;92.02;95383.28;4357258;32;20207;-62
2023/09/17 01:42:34;;;;;;;1.30;1.30;;;;;;;19.02;92.34;95378.53;4344484;32;20205;-62
2023/09/17 01:45:02;;;;;;;1.80;1.70;;;;;;;18.98;92.78;95379.56;4333745;32;20231;-63
2023/09/17 01:47:30;;;;;;;1.83;1.73;;;;;;;19.09;92.77;95378.72;4336214;32;20197;-62
2023/09/17 01:50:00;;;;;;;1.57;1.50;;;;;;;19.07;92.40;95374.81;4341412;32;20185;-63
2023/09/17 01:52:32;;;;;;;1.43;1.40;;;;;;;19.07;92.14;95370.22;4334328;32;20193;-62
2023/09/17 01:55:10;;;;;;;2.33;2.13;;;;;;;19.03;91.94;95379.31;4352254;32;20193;-62
2023/09/17 01:57:40;;;;;;;1.57;1.57;;;;;;;19.02;91.94;95378.53;4361658;32;20193;-63
2023/09/17 02:00:16;;;;;;;1.23;1.07;;;;;;;19.01;92.25;95376.19;4361690;32;20190;-62
2023/09/17 02:02:47;;;;;;;1.33;1.23;;;;;;;19.02;92.26;95373.16;4358917;32;20238;-63
2023/09/17 02:05:13;;;;;;;0.90;0.90;;;;;;;19.12;91.71;95372.63;4365978;32;20298;-62
2023/09/17 02:07:38;;;;;;;1.40;1.30;;;;;;;19.03;91.38;95374.72;4372391;32;20188;-62
2023/09/17 02:10:04;;;;;;;1.90;1.80;;;;;;;19.11;91.65;95371.09;4358850;32;20197;-62
2023/09/17 02:12:30;;;;;;;1.67;1.57;;;;;;;19.10;91.54;95374.13;4370646;32;20343;-63
2023/09/17 02:14:55;;;;;;;2.87;2.43;;;;;;;18.82;92.30;95371.47;4357774;32;20212;-62
2023/09/17 02:17:21;;;;;;;2.00;1.93;;;;;;;19.06;92.12;95365.97;4365550;32;20201;-63
2023/09/17 02:19:47;;;;;;;2.10;2.00;;;;;;;19.12;91.64;95366.50;4358833;32;20185;-62
2023/09/17 02:22:13;;;;;;;1.33;1.33;;;;;;;19.11;91.58;95371.09;4357825;32;20224;-63
2023/09/17 02:24:39;;;;;;;1.13;1.13;;;;;;;18.95;91.62;95375.66;4359713;32;20180;-62
2023/09/17 02:27:04;;;;;;;2.53;1.53;;;;;;;18.88;92.29;95375.47;4358219;32;20193;-62
2023/09/17 02:29:29;;;;;;;0.80;0.80;;;;;;;18.87;92.51;95384.66;4359084;32;20260;-63
2023/09/17 02:31:55;;;;;;;1.20;1.10;;;;;;;18.84;91.26;95382.66;4359331;32;20200;-63
2023/09/17 02:34:20;;;;;;;6.83;1.30;;;;;;;18.74;92.67;95388.53;4362777;32;20216;-62
2023/09/17 02:36:45;;;;;;;0.90;0.90;;;;;;;18.76;92.54;95383.59;4371244;32;20211;-62
2023/09/17 02:39:11;;;;;;;1.40;1.30;;;;;;;18.76;92.12;95388.97;4361691;32;20207;-63
2023/09/17 02:41:37;;;;;;;0.87;0.87;;;;;;;18.81;92.42;95383.34;4374930;32;20255;-63
2023/09/17 02:44:03;;;;;;;2.00;1.77;;;;;;;18.95;92.04;95377.56;4383412;32;20215;-62
2023/09/17 02:46:28;;;;;;;1.30;1.30;;;;;;;19.01;90.87;95376.97;4376730;32;20193;-62
2023/09/17 02:48:54;;;;;;;0.73;0.73;;;;;;;18.80;91.42;95387.94;4357692;32;20185;-63
2023/09/17 02:51:20;;;;;;;0.80;0.80;;;;;;;18.83;91.83;95391.84;4379468;32;20199;-63
2023/09/17 02:53:46;;;;;;;0.73;0.73;;;;;;;18.95;91.21;95389.09;4365185;32;20207;-62
2023/09/17 02:56:12;;;;;;;1.33;1.23;;;;;;;18.70;90.62;95390.34;4378963;32;20197;-63
2023/09/17 02:58:38;;;;;;;1.43;1.43;;;;;;;18.93;91.86;95391.34;4380822;32;20207;-62
2023/09/17 03:01:17;;;;;;;0.80;0.80;;;;;;;18.95;91.54;95399.06;4377007;32;20207;-62
2023/09/17 03:03:43;;;;;;;1.00;1.00;;;;;;;18.92;91.73;95403.22;4367829;32;20250;-62
2023/09/17 03:06:10;;;;;;;1.00;1.00;;;;;;;18.97;91.13;95413.72;4378482;32;20205;-63
2023/09/17 03:08:41;;;;;;;2.73;1.83;;;;;;;18.91;91.41;95409.75;4373591;32;20238;-63
2023/09/17 03:11:07;;;;;;;1.53;1.43;;;;;;;18.94;92.00;95409.03;4379349;32;20207;-62
2023/09/17 03:13:32;;;;;;;1.90;1.83;;;;;;;18.86;91.05;95407.31;4374130;32;20196;-63
2023/09/17 03:15:58;;;;;;;1.03;1.03;;;;;;;18.81;91.59;95415.59;4375523;32;20254;-62
2023/09/17 03:18:23;;;;;;;0.93;0.93;;;;;;;18.85;91.57;95413.81;4378117;32;20316;-63
2023/09/17 03:20:49;;;;;;;0.70;0.70;;;;;;;18.47;90.89;95406.19;4378432;32;20188;-62
2023/09/17 03:23:15;;;;;;;1.47;1.47;;;;;;;18.68;91.88;95406.81;4378529;32;20216;-62
2023/09/17 03:25:40;;;;;;;1.50;1.40;;;;;;;18.73;91.56;95405.78;4378914;32;20189;-62
2023/09/17 03:28:05;;;;;;;1.30;1.23;;;;;;;18.85;91.46;95400.34;4381030;32;20185;-63
2023/09/17 03:30:31;;;;;;;1.50;1.50;;;;;;;18.68;91.64;95414.09;4364624;32;20236;-62
2023/09/17 03:32:57;;;;;;;0.97;0.97;;;;;;;18.66;92.75;95409.06;4378679;32;20253;-63
2023/09/17 03:35:23;;;;;;;0.90;0.90;;;;;;;18.75;92.21;95412.37;4378815;32;20267;-62
2023/09/17 03:37:50;;;;;;;1.13;0.67;;;;;;;18.71;92.08;95416.09;4355856;32;20239;-63
2023/09/17 03:40:15;;;;;;;1.03;1.03;;;;;;;18.75;92.03;95416.97;4376254;32;20188;-63
2023/09/17 03:42:43;;;;;;;1.53;1.43;;;;;;;18.73;91.96;95416.53;4378316;32;20196;-62
2023/09/17 03:45:13;;;;;;;0.87;0.87;;;;;;;18.82;91.38;95412.56;4366446;32;20189;-63
2023/09/17 03:47:43;;;;;;;1.17;1.17;;;;;;;18.79;91.84;95417.84;4378370;32;20252;-63
2023/09/17 03:50:09;;;;;;;1.10;1.10;;;;;;;18.82;91.37;95417.94;4378916;32;20189;-62
2023/09/17 03:52:39;;;;;;;1.30;1.30;;;;;;;18.75;91.42;95419.66;4378305;32;20253;-63
2023/09/17 03:55:08;;;;;;;1.37;1.37;;;;;;;18.74;91.39;95412.72;4364434;32;20197;-63
2023/09/17 03:57:35;;;;;;;4.13;1.37;;;;;;;18.77;91.46;95414.72;4378330;32;20184;-63
2023/09/17 04:00:07;;;;;;;1.13;1.13;;;;;;;18.73;91.58;95413.84;4364285;32;20288;-63
2023/09/17 04:02:35;;;;;;;0.77;0.77;;;;;;;18.80;91.58;95411.34;4377028;32;20189;-62
2023/09/17 04:05:01;;;;;;;1.40;1.30;;;;;;;18.80;91.90;95403.28;4378503;32;20271;-63
2023/09/17 04:07:26;;;;;;;1.53;1.43;;;;;;;18.87;91.33;95414.25;4377225;32;20188;-63
2023/09/17 04:09:51;;;;;;;8.23;1.30;;;;;;;18.81;91.62;95416.38;4377290;32;20215;-63
2023/09/17 04:12:17;;;;;;;1.57;1.47;;;;;;;18.85;91.28;95417.28;4378308;32;20192;-63
2023/09/17 04:14:42;;;;;;;3.10;1.63;;;;;;;18.76;91.33;95423.91;4366359;32;20248;-63
2023/09/17 04:17:07;;;;;;;0.93;0.93;;;;;;;18.70;91.44;95422.63;4377525;32;20264;-63
2023/09/17 04:19:33;;;;;;;1.30;1.30;;;;;;;18.69;91.63;95421.03;4377620;32;20189;-63
2023/09/17 04:21:59;;;;;;;0.70;0.70;;;;;;;18.82;92.21;95422.53;4377758;32;20188;-63
2023/09/17 04:24:26;;;;;;;1.97;1.77;;;;;;;18.81;91.98;95419.06;4378206;32;20203;-64
2023/09/17 04:26:53;;;;;;;29.47;1.50;;;;;;;18.89;91.48;95422.75;4378041;32;20192;-63
2023/09/17 04:29:19;;;;;;;0.97;0.87;;;;;;;18.83;91.46;95424.91;4363640;32;20193;-63
2023/09/17 04:31:46;;;;;;;1.10;1.10;;;;;;;18.89;91.00;95422.75;4376158;32;20228;-63
2023/09/17 04:34:12;;;;;;;0.73;0.73;;;;;;;18.86;91.04;95424.22;4368143;32;20189;-63
2023/09/17 04:36:38;;;;;;;1.00;1.00;;;;;;;18.86;91.08;95423.44;4367029;32;20197;-63
2023/09/17 04:39:03;;;;;;;2.20;1.63;;;;;;;18.73;91.97;95421.91;4377350;32;20204;-63
2023/09/17 04:41:28;;;;;;;0.90;0.90;;;;;;;18.77;90.86;95428.94;4375944;32;20209;-63
2023/09/17 04:43:54;;;;;;;1.30;1.20;;;;;;;18.80;91.10;95430.94;4377216;32;20211;-63
2023/09/17 04:46:19;;;;;;;0.87;0.87;;;;;;;18.77;91.43;95425.47;4377762;32;20189;-63
2023/09/17 04:48:44;;;;;;;3.53;1.63;;;;;;;18.72;91.59;95431.09;4377301;32;20189;-63
2023/09/17 04:51:15;;;;;;;0.93;0.93;;;;;;;18.73;91.63;95435.34;4365388;32;20207;-63
2023/09/17 04:53:41;;;;;;;0.80;0.80;;;;;;;18.67;90.67;95431.34;4375182;32;20250;-64
2023/09/17 04:56:06;;;;;;;1.70;1.63;;;;;;;18.69;90.99;95439.84;4365155;32;20193;-63
2023/09/17 04:58:32;;;;;;;1.20;1.20;;;;;;;18.53;91.62;95443.22;4377325;32;20184;-63
2023/09/17 05:00:57;;;;;;;40.10;2.70;;;;;;;18.22;92.20;95437.72;4377451;32;20180;-63
2023/09/17 05:03:22;;;;;;;0.90;0.90;;;;;;;18.42;92.30;95438.69;4377489;32;20242;-63
2023/09/17 05:05:49;;;;;;;1.83;1.73;;;;;;;18.29;92.23;95435.22;4375998;32;20200;-63
2023/09/17 05:08:16;;;;;;;1.00;1.00;;;;;;;18.41;92.25;95432.53;4363359;32;20188;-61
2023/09/17 05:10:42;;;;;;;1.27;1.27;;;;;;;18.48;91.62;95434.63;4375821;32;20283;-61
2023/09/17 05:13:08;;;;;;;1.83;1.73;;;;;;;18.46;91.46;95434.97;4377700;32;20298;-63
2023/09/17 05:15:34;;;;;;;2.20;1.47;;;;;;;18.52;91.81;95438.97;4377376;32;20193;-64
2023/09/17 05:17:59;;;;;;;1.00;1.00;;;;;;;18.25;92.33;95445.09;4377155;32;20193;-61
2023/09/17 05:20:25;;;;;;;0.90;0.90;;;;;;;18.36;92.32;95445.41;4377303;32;20203;-62
2023/09/17 05:22:50;;;;;;;1.13;1.10;;;;;;;18.44;91.55;95449.88;4376882;32;20193;-62
2023/09/17 05:25:16;;;;;;;0.77;0.77;;;;;;;18.41;90.48;95454.00;4371359;32;20221;-61
2023/09/17 05:27:42;;;;;;;0.90;0.90;;;;;;;18.46;91.28;95455.69;4360842;32;20241;-61
2023/09/17 05:30:08;;;;;;;2.83;2.63;;;;;;;18.50;90.65;95451.94;4376468;32;20196;-61
2023/09/17 05:32:33;;;;;;;0.97;0.97;;;;;;;18.42;91.40;95455.56;4375647;32;20262;-62
2023/09/17 05:34:59;;;;;;;1.20;1.20;;;;;;;18.50;90.32;95454.62;4376691;32;20200;-62
2023/09/17 05:37:26;;;;;;;1.20;1.17;;;;;;;18.65;90.31;95461.25;4362684;32;20246;-62
2023/09/17 05:39:51;;;;;;;2.13;1.93;;;;;;;18.76;90.22;95450.78;4377134;32;20234;-62
2023/09/17 05:42:16;;;;;;;1.17;1.17;;;;;;;18.74;90.59;95453.03;4376744;32;20192;-61
2023/09/17 05:44:42;;;;;;;1.20;1.20;;;;;;;18.69;90.36;95456.00;4363240;32;20256;-61
2023/09/17 05:47:07;;;;;;;1.53;1.53;;;;;;;18.57;89.79;95459.44;4375983;32;20240;-62
2023/09/17 05:49:32;;;;;;;0.90;0.90;;;;;;;18.68;90.54;95459.78;4376765;32;20188;-61
2023/09/17 05:51:59;;;;;;;0.80;0.80;;;;;;;18.78;90.25;95467.34;4376376;32;20192;-61
2023/09/17 05:54:25;;;;;;;1.70;1.60;;;;;;;18.82;90.64;95460.19;4362410;32;20193;-61
2023/09/17 05:56:50;;;;;;;0.97;0.97;;;;;;;18.92;90.47;95461.59;4367144;32;20250;-62
2023/09/17 05:59:17;;;;;;;1.20;1.17;;;;;;;18.85;90.06;95459.50;4362495;32;20215;-62
2023/09/17 06:01:42;;;;;;;1.30;1.30;;;;;;;18.82;90.16;95457.50;4362059;32;20203;-62
2023/09/17 06:04:07;;;;;;;1.93;1.83;;;;;;;19.03;89.89;95470.75;4378133;32;20193;-62
2023/09/17 06:06:33;;;;;;;1.30;1.30;;;;;;;19.07;89.57;95466.25;4363137;32;20222;-61
2023/09/17 06:08:58;;;;;;;2.17;1.87;;;;;;;19.03;90.61;95481.50;4376446;32;20189;-61
2023/09/17 06:11:24;;;;;;;1.33;1.33;;;;;;;18.94;90.28;95503.13;4377195;32;20240;-62
2023/09/17 06:13:49;;;;;;;1.10;1.10;;;;;;;18.91;90.59;95506.53;4370561;32;20207;-61
2023/09/17 06:16:15;;;;;;;1.07;1.07;;;;;;;18.83;90.04;95502.06;4379119;32;20189;-62
2023/09/17 06:18:40;;;;;;;1.60;1.50;;;;;;;19.02;91.21;95504.91;4380192;32;20188;-61
2023/09/17 06:21:05;;;;;;;1.20;1.20;;;;;;;18.99;90.28;95499.44;4379877;32;20189;-61
2023/09/17 06:23:31;;;;;;;0.87;0.87;;;;;;;18.96;90.13;95487.44;4379198;32;20259;-62
2023/09/17 06:25:56;;;;;;;0.67;0.67;;;;;;;19.15;90.14;95481.44;4379893;32;20295;-61
2023/09/17 06:28:21;;;;;;;0.97;0.90;;;;;;;19.19;89.79;95482.31;4379724;32;20207;-62
2023/09/17 06:30:48;;;;;;;1.00;1.00;;;;;;;19.24;89.54;95482.06;4379411;32;20184;-61
2023/09/17 06:33:13;;;;;;;1.70;1.60;;;;;;;19.30;89.35;95485.28;4378410;32;20189;-62
2023/09/17 06:35:39;;;;;;;0.93;0.93;;;;;;;19.29;89.06;95483.72;4366138;32;20192;-61
2023/09/17 06:38:04;;;;;;;6.87;1.63;;;;;;;19.25;89.17;95493.62;4365371;32;20227;-61
2023/09/17 06:40:30;;;;;;;1.10;1.10;;;;;;;19.29;89.58;95494.50;4378917;32;20215;-61
2023/09/17 06:42:55;;;;;;;1.43;1.43;;;;;;;19.45;89.53;95498.00;4378875;32;20200;-61
2023/09/17 06:45:22;;;;;;;1.37;1.30;;;;;;;19.43;90.12;95489.47;4378849;32;20189;-61
2023/09/17 06:47:49;;;;;;;1.47;1.37;;;;;;;19.40;90.94;95492.84;4363786;32;20202;-62
2023/09/17 06:50:14;;;;;;;1.70;1.43;;;;;;;19.49;89.47;95498.88;4378860;32;20231;-62
2023/09/17 06:52:40;;;;;;;0.93;0.93;;;;;;;19.52;88.29;95495.53;4366520;32;20206;-62
2023/09/17 06:55:05;;;;;;;1.27;1.27;;;;;;;19.40;89.60;95495.53;4377879;32;20192;-61
2023/09/17 06:57:31;;;;;;;1.17;1.17;;;;;;;19.61;89.68;95501.50;4354607;32;22538;-61
2023/09/17 06:59:57;;;;;;;1.23;1.23;;;;;;;19.59;89.46;95495.69;4378349;32;20251;-62
2023/09/17 07:02:22;;;;;;;0.97;0.97;;;;;;;19.67;88.99;95500.12;4377369;32;20196;-62
2023/09/17 07:04:47;;;;;;;0.33;0.33;;;;;;;19.72;88.54;95497.19;4369022;32;20188;-62
2023/09/17 07:07:13;;;;;;;1.50;1.50;;;;;;;19.78;88.80;95503.84;4378681;32;20231;-62
2023/09/17 07:09:38;;;;;;;0.97;0.97;;;;;;;19.73;88.71;95498.75;4380070;32;20204;-62
2023/09/17 07:12:04;;;;;;;0.70;0.70;;;;;;;19.92;89.37;95506.13;4379031;32;20193;-62
2023/09/17 07:14:30;;;;;;;1.57;1.47;;;;;;;19.92;88.46;95500.75;4378260;32;20223;-62
2023/09/17 07:16:55;;;;;;;1.90;1.40;;;;;;;19.98;89.27;95503.94;4378735;32;20222;-62
2023/09/17 07:19:20;;;;;;;0.93;0.93;;;;;;;19.97;89.74;95502.38;4364521;32;20189;-62
2023/09/17 07:21:46;;;;;;;1.10;1.10;;;;;;;20.02;88.89;95515.56;4364101;32;20246;-61
2023/09/17 07:24:11;;;;;;;5.27;1.43;;;;;;;20.02;88.80;95512.88;4363656;32;20248;-62
2023/09/17 07:26:37;;;;;;;1.93;1.03;;;;;;;20.08;88.79;95514.19;4366320;32;20188;-62
2023/09/17 07:29:03;;;;;;;2.10;1.50;;;;;;;20.10;88.61;95523.50;4378094;32;20217;-62
2023/09/17 07:31:29;;;;;;;1.87;1.77;;;;;;;20.11;87.97;95513.50;4366718;32;20189;-61
2023/09/17 07:33:54;;;;;;;4.73;1.67;;;;;;;20.16;88.20;95516.69;4368312;32;20243;-62
2023/09/17 07:36:20;;;;;;;2.13;1.47;;;;;;;20.19;88.46;95515.22;4364730;32;20180;-62
2023/09/17 07:38:45;;;;;;;1.00;1.00;;;;;;;20.22;87.12;95509.13;4376152;32;20301;-62
2023/09/17 07:41:11;;;;;;;0.77;0.77;;;;;;;20.32;86.65;95514.00;4379764;32;20193;-62
2023/09/17 07:43:36;;;;;;;1.33;1.13;;;;;;;20.35;85.73;95512.53;4376869;32;20185;-62
2023/09/17 07:46:01;;;;;;;13.00;2.30;;;;;;;20.41;85.79;95511.91;4364744;32;20275;-61
2023/09/17 07:48:29;;;;;;;3.13;1.27;;;;;;;20.45;85.33;95512.78;4378704;32;20189;-62
2023/09/17 07:51:01;;;;;;;1.80;1.70;;;;;;;20.55;85.57;95516.84;4378326;32;20220;-61
2023/09/17 07:53:26;;;;;;;0.70;0.70;;;;;;;20.58;83.58;95516.12;4378281;32;20253;-61
2023/09/17 07:55:52;;;;;;;1.00;1.00;;;;;;;20.65;84.06;95515.50;4370693;32;20192;-61
2023/09/17 07:58:18;;;;;;;0.77;0.77;;;;;;;20.66;83.27;95525.94;4377382;32;20189;-62
2023/09/17 08:00:45;;;;;;;1.63;0.90;;;;;;;20.73;83.14;95522.62;4376579;32;20201;-61
2023/09/17 08:03:13;;;;;;;4.50;0.70;;;;;;;20.84;82.73;95531.72;4365404;32;20215;-62
2023/09/17 08:05:39;;;;;;;0.87;0.87;;;;;;;20.89;81.32;95526.81;4364251;32;20173;-62
2023/09/17 08:08:05;;;;;;;0.90;0.90;;;;;;;20.97;82.45;95527.75;4377666;32;20216;-61
2023/09/17 08:10:31;;;;;;;2.27;1.03;;;;;;;21.01;79.50;95539.38;4377033;32;22938;-61
2023/09/17 08:12:56;;;;;;;0.73;0.73;;;;;;;21.13;79.42;95538.47;4363625;32;20193;-61
2023/09/17 08:15:22;;;;;;;0.50;0.50;;;;;;;21.19;78.80;95537.84;4376680;32;20294;-62
2023/09/17 08:17:47;;;;;;;0.77;0.77;;;;;;;21.24;79.28;95542.19;4376994;32;20199;-62
2023/09/17 08:20:13;;;;;;;0.83;0.83;;;;;;;21.27;80.05;95528.75;4376821;32;20177;-62
2023/09/17 08:22:38;;;;;;;0.57;0.57;;;;;;;21.28;79.13;95526.84;4378515;32;20231;-62
2023/09/17 08:25:06;;;;;;;0.77;0.77;;;;;;;21.29;78.39;95536.50;4375737;32;20220;-61
2023/09/17 08:27:31;;;;;;;1.10;1.10;;;;;;;21.42;78.75;95526.31;4377109;32;20268;-62
2023/09/17 08:29:58;;;;;;;2.57;1.23;;;;;;;21.42;77.48;95529.81;4366039;32;20188;-62
2023/09/17 08:32:23;;;;;;;0.77;0.77;;;;;;;21.50;77.00;95528.03;4373558;32;20200;-61
2023/09/17 08:34:49;;;;;;;1.60;1.50;;;;;;;21.53;76.20;95538.12;4373295;32;20207;-61
2023/09/17 08:37:14;;;;;;;1.57;0.87;;;;;;;21.51;78.97;95533.06;4369030;32;20213;-61
2023/09/17 08:39:39;;;;;;;0.67;0.67;;;;;;;;;;4364264;32;20272;-62
2023/09/17 08:42:05;;;;;;;1.10;1.10;;;;;;;21.56;76.04;95534.72;4362699;32;20236;-62
2023/09/17 08:44:32;;;;;;;0.40;0.40;;;;;;;21.63;76.63;95532.13;4363311;32;20263;-62
2023/09/17 08:46:59;;;;;;;1.17;1.17;;;;;;;21.72;73.90;95538.09;4357668;32;20193;-62
2023/09/17 08:49:25;;;;;;;0.57;0.57;;;;;;;21.75;74.30;95531.97;4376686;32;20232;-61
2023/09/17 08:51:55;;;;;;;0.67;0.67;;;;;;;21.71;74.51;95539.22;4375536;32;20255;-62
2023/09/17 08:54:25;;;;;;;0.93;0.87;;;;;;;21.76;73.76;95535.44;4377144;32;20196;-62
2023/09/17 08:56:54;;;;;;;0.90;0.90;;;;;;;21.76;73.86;95541.63;4375406;32;20205;-62
2023/09/17 08:59:26;;;;;;;1.17;1.17;;;;;;;21.71;73.65;95535.75;4375880;32;20196;-62
2023/09/17 09:01:53;;;;;;;0.80;0.80;;;;;;;21.63;74.26;95540.22;4373013;32;20201;-61
2023/09/17 09:04:21;;;;;;;1.17;1.17;;;;;;;21.65;74.40;95543.34;4363158;32;20219;-62
2023/09/17 09:06:47;;;;;;;2.03;0.57;;;;;;;21.65;73.99;95546.03;4377605;32;20216;-62
2023/09/17 09:09:15;;;;;;;1.63;0.97;;;;;;;21.68;73.66;95545.34;4362599;32;20216;-63
2023/09/17 09:11:41;;;;;;;0.90;0.90;;;;;;;21.76;74.86;95543.56;4366682;32;20197;-62
2023/09/17 09:14:07;;;;;;;0.50;0.50;;;;;;;21.81;73.54;95541.34;4357627;32;20214;-62
2023/09/17 09:16:33;;;;;;;0.60;0.60;;;;;;;21.94;73.05;95542.72;4356782;32;20196;-62
2023/09/17 09:18:59;;;;;;;1.20;1.20;;;;;;;21.95;73.83;95544.28;4364443;32;20185;-62
2023/09/17 09:21:25;;;;;;;10.67;9.47;;;;;;;21.94;73.67;95536.53;4379626;32;20236;-62
2023/09/17 09:23:50;;;;;;;2.30;2.20;;;;;;;21.97;73.36;95537.75;4381327;32;20287;-62
2023/09/17 09:26:16;;;;;;;0.90;0.90;;;;;;;21.94;72.67;95540.00;4377474;32;20197;-62
2023/09/17 09:28:41;;;;;;;0.93;0.93;;;;;;;21.99;72.09;95543.56;4386279;32;20203;-62
2023/09/17 09:31:07;;;;;;;0.80;0.80;;;;;;;21.98;73.38;95542.78;4370041;32;20189;-62
2023/09/17 09:33:33;;;;;;;0.83;0.83;;;;;;;22.03;73.02;95539.03;4381186;32;20203;-62
2023/09/17 09:36:00;;;;;;;0.60;0.60;;;;;;;22.02;72.83;95540.94;4371381;32;20207;-62
2023/09/17 09:38:27;;;;;;;1.97;1.80;;;;;;;22.04;72.12;95535.94;4372520;32;20180;-62
2023/09/17 09:40:54;;;;;;;0.90;0.90;;;;;;;22.11;70.26;95540.69;4358871;32;20219;-62
2023/09/17 09:43:30;;;;;;;1.13;1.13;;;;;;;22.19;70.44;95542.37;4377496;32;20201;-62
2023/09/17 09:46:04;;;;;;;0.40;0.40;;;;;;;22.20;71.48;95535.84;4374429;32;20200;-62
2023/09/17 09:48:30;;;;;;;0.40;0.40;;;;;;;22.22;71.37;95537.03;4380560;32;20192;-62
2023/09/17 09:50:56;;;;;;;0.57;0.57;;;;;;;22.19;71.56;95528.88;4381944;32;20224;-62
2023/09/17 09:53:21;;;;;;;1.03;1.03;;;;;;;22.18;69.79;95530.78;4373402;32;20204;-62
2023/09/17 09:55:48;;;;;;;0.77;0.77;;;;;;;22.15;69.44;95531.50;4382913;32;20219;-62
2023/09/17 09:58:14;;;;;;;0.70;0.70;;;;;;;22.20;69.60;95542.03;4376528;32;20240;-62
2023/09/17 10:00:44;;;;;;;0.40;0.40;;;;;;;22.21;70.65;95537.41;4377281;32;20196;-62
2023/09/17 10:03:11;;;;;;;0.70;0.63;;;;;;;22.18;70.91;95536.19;4354674;32;20185;-62
2023/09/17 10:05:39;;;;;;;0.70;0.70;;;;;;;22.25;70.08;95533.59;4371873;32;20208;-62
2023/09/17 10:08:07;;;;;;;0.60;0.60;;;;;;;22.24;70.26;95533.94;4378061;32;20185;-62
2023/09/17 10:10:33;;;;;;;1.77;1.07;;;;;;;22.31;70.44;95534.06;4373766;32;20201;-62
2023/09/17 10:13:01;;;;;;;0.60;0.60;;;;;;;22.33;70.78;95529.06;4373794;32;20233;-62
2023/09/17 10:15:26;;;;;;;0.70;0.70;;;;;;;22.37;69.90;95532.63;4349398;32;20239;-62
2023/09/17 10:17:53;;;;;;;0.77;0.77;;;;;;;22.46;70.00;95532.34;4357336;32;20224;-62
2023/09/17 10:20:20;;;;;;;1.13;0.80;;;;;;;22.55;69.41;95536.38;4342237;32;20305;-62
2023/09/17 10:22:48;;;;;;;1.23;0.97;;;;;;;22.58;69.71;95532.94;4344732;32;20228;-62
2023/09/17 10:25:14;;;;;;;1.10;1.10;;;;;;;22.61;69.80;95537.63;4343426;32;20239;-62
2023/09/17 10:27:43;;;;;;;0.70;0.70;;;;;;;22.70;70.35;95537.34;4346803;32;20282;-63
2023/09/17 10:30:10;;;;;;;3.43;2.53;;;;;;;22.72;69.77;95518.81;4347201;32;20240;-62
2023/09/17 10:32:36;;;;;;;1.20;1.20;;;;;;;22.65;70.05;95521.44;4352266;32;20259;-63
2023/09/17 10:35:03;;;;;;;0.87;0.87;;;;;;;22.62;69.19;95522.94;4331130;32;20335;-62
2023/09/17 10:37:31;;;;;;;0.70;0.70;;;;;;;22.62;68.15;95525.66;4353231;32;20196;-62
2023/09/17 10:39:57;;;;;;;0.83;0.83;;;;;;;22.62;68.60;95516.75;4346655;32;20240;-62
2023/09/17 10:42:25;;;;;;;1.07;1.07;;;;;;;22.55;69.07;95522.84;4343127;32;20232;-63
2023/09/17 10:44:55;;;;;;;0.70;0.70;;;;;;;22.50;69.21;95528.56;4347976;32;20263;-63
2023/09/17 10:47:21;;;;;;;1.53;1.37;;;;;;;22.56;70.23;95529.03;4346558;32;20235;-63
2023/09/17 10:49:47;;;;;;;0.90;0.90;;;;;;;22.57;70.24;95530.59;4346925;32;20224;-62
2023/09/17 10:52:13;;;;;;;8.70;1.17;;;;;;;22.58;70.51;95519.41;4354071;32;20243;-63
2023/09/17 10:54:39;;;;;;;0.60;0.60;;;;;;;22.61;70.55;95509.78;4344389;32;20203;-63
2023/09/17 10:57:11;;;;;;;0.70;0.70;;;;;;;22.65;70.50;95505.22;4340837;32;20217;-63
2023/09/17 10:59:37;;;;;;;0.93;0.93;;;;;;;22.73;69.33;95506.84;4354684;32;20299;-63
2023/09/17 11:02:03;;;;;;;1.27;0.93;;;;;;;22.84;69.05;95496.22;4357713;32;20195;-63
2023/09/17 11:04:31;;;;;;;2.50;1.43;;;;;;;23.05;67.29;95490.28;4363647;32;20210;-63
2023/09/17 11:07:00;;;;;;;1.00;1.00;;;;;;;23.07;67.00;95491.44;4382507;32;20177;-63
2023/09/17 11:09:26;;;;;;;0.40;0.40;;;;;;;23.06;67.73;95491.84;4384728;32;20213;-63
2023/09/17 11:11:51;;;;;;;0.77;0.77;;;;;;;23.16;67.47;95481.13;4384703;32;20180;-63
2023/09/17 11:14:17;;;;;;;0.60;0.60;;;;;;;23.14;66.89;95483.41;4378762;32;20195;-63
2023/09/17 11:16:46;;;;;;;0.80;0.80;;;;;;;23.25;66.11;95486.25;4360555;32;20203;-63
2023/09/17 11:19:16;;;;;;;1.27;1.20;;;;;;;23.29;66.21;95485.12;4364408;32;20207;-62
2023/09/17 11:21:46;;;;;;;1.07;1.07;;;;;;;23.25;66.70;95481.63;4370581;32;20173;-62
2023/09/17 11:24:12;;;;;;;0.63;0.63;;;;;;;23.22;66.51;95482.34;4372812;32;20173;-63
2023/09/17 11:26:40;;;;;;;0.40;0.40;;;;;;;23.26;66.14;95485.88;4381320;32;20210;-63
2023/09/17 11:29:06;;;;;;;0.80;0.80;;;;;;;23.18;66.50;95484.25;4366527;32;20184;-63
2023/09/17 11:31:57;;;;;;;0.50;0.50;;;;;;;23.15;67.11;95474.16;4360227;32;20280;-63
2023/09/17 11:34:23;;;;;;;3.10;1.47;;;;;;;23.16;66.81;95475.72;4362855;32;20256;-63